Latest Coastal Weather Observations for Groote Eylandt Airport

IDD60701

Issued at 7:21 am CST Sunday 25 February 2024 (issued every 10 minutes, with the page automatically refreshed every 10 minutes)

About coastal observations | Map of coastal stations | Coastal observations for NT | Marine services | Other Formats
Station Details ID: 014518 Name: GROOTE EYLANDT AIRPORT Lat: -13.97 Lon: 136.46 Height: 13.7 m
Data from the previous 72 hours. | See also: Recent months at Groote Eylandt Airport
Date/Time
CST
Wind Sea
Height
m
Swell Vis
km
Cloud Weather Temp
°C
Press
MSL
hPa
Rain since
9am
mm
Dir  Spd
kts
Gust
kts
Height
m
Period
s
Dir
25/07:00am N 2 4 - - - - 10 - - 26.2 1006.0 0.0
25/06:30am N 3 5 - - - - 10 - - 25.9 1005.8 0.0
25/06:00am ESE 3 4 - - - - 10 - - 25.8 1005.1 0.0
25/05:30am SE 4 6 - - - - 10 - - 25.8 1004.7 0.0
25/05:00am S 4 5 - - - - 10 Partly cloudy - 25.8 1005.4 0.0
25/04:30am CALM 0 0 - - - - 10 Partly cloudy - 25.8 1005.4 0.0
25/04:00am ESE 3 4 - - - - 10 Cloudy - 26.0 1005.0 0.0
25/03:30am ESE 3 4 - - - - 10 Partly cloudy - 25.7 1005.3 0.0
25/03:00am ESE 3 4 - - - - 10 Partly cloudy - 25.6 1005.5 0.0
25/02:30am E 3 4 - - - - 10 - - 25.8 1005.5 0.0
25/02:00am CALM 0 0 - - - - 10 - - 26.0 1006.0 0.0
25/01:30am NE 2 4 - - - - 10 - - 26.5 1006.3 0.0
25/01:00am NNE 1 4 - - - - 10 - - 26.8 1006.7 0.0
25/12:30am N 4 4 - - - - 10 - - 27.0 1007.3 0.0
25/12:00am N 7 11 - - - - 10 - - 27.2 1007.8 0.0
 
Date/Time
CST
Wind Sea
Height
m
Swell Vis
km
Cloud Weather Temp
°C
Press
MSL
hPa
Rain since
9am
mm
Dir  Spd
kts
Gust
kts
Height
m
Period
s
Dir
24/11:30pm N 6 9 - - - - 10 Partly cloudy - 27.7 1008.2 0.0
24/11:00pm ENE 2 5 - - - - 10 Partly cloudy - 27.1 1008.4 0.0
24/10:30pm ENE 2 4 - - - - 10 Partly cloudy - 27.2 1008.2 0.0
24/10:28pm ENE 2 4 - - - - 10 Partly cloudy - 27.3 1008.2 0.0
24/10:16pm CALM 0 0 - - - - 10 Partly cloudy - 27.3 1008.1 0.0
24/10:00pm NE 3 4 - - - - 10 Partly cloudy - 27.2 1008.0 0.0
24/09:30pm E 4 5 - - - - 10 - - 27.5 1007.8 0.0
24/09:00pm NE 3 5 - - - - 10 Cloudy - 27.8 1007.4 0.0
24/08:30pm NE 3 5 - - - - 10 - - 27.9 1006.9 0.0
24/08:00pm NE 5 6 - - - - 10 - - 27.9 1006.4 0.0
24/07:30pm NE 5 6 - - - - 10 Partly cloudy - 28.1 1006.1 0.0
24/07:00pm NE 5 7 - - - - 10 Partly cloudy - 28.8 1005.7 0.0
24/06:30pm ENE 7 9 - - - - 10 Partly cloudy - 29.2 1005.5 0.0
24/06:00pm NE 6 9 - - - - 10 Mostly cloudy - 29.4 1004.9 0.0
24/05:30pm E 5 7 - - - - 10 Cloudy - 29.8 1004.4 0.0
24/05:00pm SE 3 5 - - - - 10 Cloudy - 29.3 1003.9 0.0
24/04:30pm ENE 4 7 - - - - 10 Cloudy - 29.3 1003.9 0.0
24/04:00pm E 7 9 - - - - 10 Partly cloudy - 29.2 1003.7 0.0
24/03:30pm E 7 9 - - - - 10 Partly cloudy - 29.0 1004.1 0.0
24/03:00pm E 11 14 - - - - 10 Mostly cloudy Rain 28.8 1004.2 0.0
24/02:30pm ESE 8 11 - - - - 10 Partly cloudy - 28.1 1004.8 0.0
24/02:00pm SE 5 8 - - - - 10 Partly cloudy - 28.5 1005.6 0.0
24/01:30pm SSE 7 11 - - - - 10 Partly cloudy - 30.7 1005.8 0.0
24/01:00pm SW 7 14 - - - - 10 Partly cloudy - 31.6 1005.9 0.0
24/12:30pm SW 8 14 - - - - 10 Partly cloudy - 31.3 1006.1 0.0
24/12:00pm W 7 10 - - - - 10 Partly cloudy - 31.2 1006.5 0.0
24/11:30am WNW 8 11 - - - - 10 Cloudy - 31.2 1006.9 0.0
24/11:00am NW 5 8 - - - - 10 Partly cloudy - 31.4 1007.1 0.0
24/10:30am NNW 8 11 - - - - 10 Cloudy - 30.5 1007.6 0.0
24/10:00am NNW 6 10 - - - - 10 Partly cloudy - 30.5 1007.9 0.0
24/09:30am NNW 7 11 - - - - 10 Partly cloudy - 29.8 1007.9 0.0
24/09:00am N 7 9 - - - - 10 Cloudy - 29.3 1008.0 17.0
24/08:30am NNW 6 9 - - - - 10 Partly cloudy - 28.5 1007.7 17.0
24/08:00am NW 8 12 - - - - 10 Partly cloudy - 28.3 1007.4 17.0
24/07:30am NW 9 12 - - - - 10 Partly cloudy - 27.9 1007.4 17.0
24/07:00am NW 7 9 - - - - 10 Partly cloudy - 27.4 1007.4 17.0
24/06:30am WNW 5 8 - - - - 10 Partly cloudy - 27.4 1007.1 17.0
24/06:00am N 2 5 - - - - 10 Cloudy - 26.7 1006.9 17.0
24/05:30am CALM 0 0 - - - - 10 Partly cloudy - 26.3 1006.5 17.0
24/05:00am NNE 3 4 - - - - 10 Cloudy - 26.3 1006.1 17.0
24/04:30am SE 2 3 - - - - 10 Cloudy - 26.0 1005.8 17.0
24/04:00am CALM 0 0 - - - - 10 Partly cloudy - 25.7 1005.6 17.0
24/03:30am SE 2 4 - - - - 10 Partly cloudy - 25.4 1005.8 17.0
24/03:00am ESE 2 3 - - - - 10 Partly cloudy - 25.7 1005.8 17.0
24/02:30am NNW 3 5 - - - - 10 - - 26.2 1006.0 17.0
24/02:00am W 4 5 - - - - 10 Partly cloudy - 26.1 1006.5 17.0
24/01:30am WNW 7 11 - - - - 10 Cloudy - 26.3 1006.8 17.0
24/01:00am NE 5 7 - - - - 10 Partly cloudy - 25.6 1007.6 17.0
24/12:30am NE 6 8 - - - - 10 Partly cloudy - 25.3 1007.7 17.0
24/12:25am NNE 6 8 - - - - 10 Partly cloudy - 25.5 1007.7 17.0
24/12:18am N 8 11 - - - - 10 Partly cloudy - 25.1 1007.6 17.0
24/12:15am NNW 9 13 - - - - 10 Partly cloudy - 25.2 1007.8 17.0
24/12:00am NNW 9 12 - - - - 1 Cloudy Thunderstorm 25.8 1008.7 16.4
 
Date/Time
CST
Wind Sea
Height
m
Swell Vis
km
Cloud Weather Temp
°C
Press
MSL
hPa
Rain since
9am
mm
Dir  Spd
kts
Gust
kts
Height
m
Period
s
Dir
23/11:54pm WNW 6 12 - - - - 0.8 Partly cloudy - 26.0 1008.9 13.6
23/11:51pm WSW 5 9 - - - - 0.8 Partly cloudy - 26.0 1009.2 10.6
23/11:41pm SSW 9 16 - - - - 4 Partly cloudy - 26.3 1008.5 1.2
23/11:38pm SSW 11 23 - - - - 5 Partly cloudy - 26.5 1008.3 0.6
23/11:30pm SSW 9 23 - - - - 10 Partly cloudy - 27.5 1008.2 0.0
23/11:00pm ENE 4 5 - - - - 10 Cloudy - 29.3 1008.3 0.0
23/10:30pm ESE 3 5 - - - - 10 Partly cloudy - 29.0 1008.5 0.0
23/10:00pm E 1 3 - - - - 10 Partly cloudy - 29.1 1008.1 0.0
23/09:30pm ENE 1 3 - - - - 10 - - 29.0 1008.1 0.0
23/09:00pm ENE 1 3 - - - - 10 Mostly clear - 29.3 1008.1 0.0
23/08:30pm ENE 4 5 - - - - 10 - - 30.1 1007.5 0.0
23/08:00pm E 6 8 - - - - 10 - - 30.2 1007.4 0.0
23/07:30pm E 6 7 - - - - 10 - - 30.8 1007.0 0.0
23/07:00pm NE 6 7 - - - - 10 - - 30.9 1006.7 0.0
23/06:30pm NE 5 7 - - - - 10 - - 31.6 1006.4 0.0
23/06:00pm ENE 7 10 - - - - 10 Mostly clear - 32.6 1005.6 0.0
23/05:30pm SE 4 7 - - - - 10 Partly cloudy - 34.6 1005.7 0.0
23/05:00pm S 4 6 - - - - 10 - - 34.4 1005.6 0.0
23/04:30pm SW 5 9 - - - - 10 - - 34.6 1005.2 0.0
23/04:00pm SSW 5 8 - - - - 10 - - 34.4 1005.4 0.0
23/03:30pm SSW 5 9 - - - - 10 - - 34.4 1005.6 0.0
23/03:00pm SSW 5 8 - - - - 10 - - 34.6 1005.7 0.0
23/02:30pm S 5 9 - - - - 10 - - 34.5 1006.4 0.0
23/02:00pm WNW 7 11 - - - - 10 - - 34.1 1006.6 0.0
23/01:30pm W 6 10 - - - - 10 - - 33.5 1006.9 0.0
23/01:00pm W 9 12 - - - - 10 - - 32.7 1007.4 0.0
23/12:30pm W 8 11 - - - - 10 - - 32.9 1008.2 0.0
23/12:00pm WSW 6 9 - - - - 10 - - 32.4 1008.7 0.0
23/11:30am W 5 9 - - - - 10 - - 32.7 1009.1 0.0
23/11:00am W 4 8 - - - - 10 - - 32.3 1009.2 0.0
23/10:30am W 6 9 - - - - 10 - - 31.8 1009.3 0.0
23/10:00am W 7 10 - - - - 10 - - 31.5 1009.7 0.0
23/09:30am WSW 6 8 - - - - 10 - - 30.6 1010.1 0.0
23/09:00am W 6 11 - - - - 10 - - 30.5 1010.3 0.2
23/08:30am WNW 6 8 - - - - 10 - - 29.9 1010.2 0.2
23/08:00am NW 5 7 - - - - 10 - - 29.4 1009.7 0.2
23/07:30am CALM 0 0 - - - - 10 - - 28.6 1009.0 0.2
23/07:00am CALM 0 0 - - - - 10 - - 27.6 1008.6 0.2
23/06:30am NW 2 5 - - - - 10 - - 27.6 1008.2 0.2
23/06:00am WNW 4 6 - - - - 10 - - 28.0 1008.1 0.2
23/05:30am NW 1 5 - - - - 10 Partly cloudy - 28.1 1008.3 0.2
23/05:00am CALM 0 2 - - - - 10 Partly cloudy - 28.1 1008.2 0.2
23/04:30am W 4 5 - - - - 10 Partly cloudy - 28.3 1008.1 0.2
23/04:00am NNW 4 6 - - - - 10 Partly cloudy - 28.4 1007.5 0.2
23/03:30am NNW 4 5 - - - - 10 - - 28.2 1007.4 0.2
23/03:20am NW 4 5 - - - - 10 Partly cloudy - 28.3 1007.5 0.2
23/03:00am NNW 4 6 - - - - 10 Partly cloudy - 28.4 1007.6 0.2
23/02:47am NNW 4 6 - - - - 10 Partly cloudy - 28.5 1007.7 0.2
23/02:30am N 1 4 - - - - 10 - - 28.4 1007.6 0.2
23/02:00am N 3 3 - - - - 10 - - 28.5 1008.3 0.2
23/01:30am N 3 4 - - - - 10 - - 28.5 1008.7 0.2
23/01:04am N 3 5 - - - - 10 Partly cloudy - 28.7 1009.3 0.2
23/01:00am N 3 5 - - - - 10 Partly cloudy - 28.7 1009.3 0.2
23/12:43am NNE 3 4 - - - - 10 Partly cloudy - 28.4 1009.5 0.2
23/12:30am ENE 4 5 - - - - 10 - - 28.2 1009.6 0.2
23/12:00am NE 3 4 - - - - 10 Partly cloudy - 28.6 1010.1 0.2
 
Date/Time
CST
Wind Sea
Height
m
Swell Vis
km
Cloud Weather Temp
°C
Press
MSL
hPa
Rain since
9am
mm
Dir  Spd
kts
Gust
kts
Height
m
Period
s
Dir
22/11:30pm CALM 0 0 - - - - 10 - - 27.6 1010.1 0.2
22/11:00pm E 4 4 - - - - 10 - - 27.8 1009.8 0.2
22/10:30pm ENE 4 5 - - - - 10 - - 27.9 1009.9 0.2
22/10:00pm NNE 3 4 - - - - 10 - - 28.4 1009.6 0.2
22/09:30pm ESE 3 3 - - - - 10 - - 28.3 1009.5 0.2
22/09:00pm NNE 3 5 - - - - 10 - - 29.3 1009.1 0.2
22/08:30pm ENE 4 5 - - - - 10 - - 29.6 1008.6 0.2
22/08:00pm ESE 3 4 - - - - 10 - - 29.8 1008.2 0.2
22/07:30pm SE 4 5 - - - - 10 - - 30.3 1008.1 0.2
22/07:00pm SE 3 5 - - - - 10 - - 30.9 1007.9 0.2
22/06:30pm SSE 3 5 - - - - 10 - - 31.5 1007.6 0.2
22/06:00pm SSE 4 7 - - - - 10 - - 32.3 1007.1 0.2
22/05:30pm S 6 10 - - - - 10 - - 33.0 1006.7 0.2
22/05:00pm SSW 8 13 - - - - 10 - - 33.1 1006.6 0.2
22/04:30pm SSW 7 9 - - - - 10 - - 33.4 1006.6 0.2
22/04:00pm SSW 7 10 - - - - 10 - - 33.6 1006.6 0.2
22/03:30pm SSW 7 14 - - - - 10 - - 33.7 1006.6 0.2
22/03:00pm SW 7 12 - - - - 10 - - 32.9 1006.8 0.2
22/02:30pm SW 7 13 - - - - 10 - - 32.8 1007.0 0.2
22/02:00pm WSW 8 13 - - - - 10 - - 33.2 1007.5 0.2
22/01:30pm SW 7 12 - - - - 10 - - 33.2 1007.8 0.2
22/01:00pm WSW 6 10 - - - - 10 - - 32.7 1008.2 0.2
22/12:30pm SSW 6 11 - - - - 10 - - 32.3 1008.7 0.2
22/12:00pm SW 7 10 - - - - 10 - - 32.2 1009.0 0.2
22/11:30am SW 5 9 - - - - 10 - - 31.7 1009.5 0.2
22/11:00am WSW 7 10 - - - - 10 Partly cloudy - 30.8 1009.9 0.2
22/10:30am WSW 8 11 - - - - 10 - - 30.5 1010.3 0.2
22/10:00am W 9 13 - - - - 10 Partly cloudy - 30.3 1010.4 0.2
22/09:30am W 7 11 - - - - 10 - - 30.8 1010.5 0.2
22/09:00am W 7 9 - - - - 10 - - 30.3 1010.8 0.4
22/08:30am W 5 8 - - - - 10 Partly cloudy - 29.7 1010.5 0.4
22/08:00am WSW 1 5 - - - - 10 Cloudy - 28.7 1010.4 0.4
22/07:30am SSE 4 5 - - - - 10 Partly cloudy - 27.3 1010.0 0.4

Other formats

Comma delimited format used in spreadsheet applications
http://www.bom.gov.au/fwo/IDD60701/IDD60701.94153.axf

JavaScript Object Notation format (JSON) in row-major order
http://www.bom.gov.au/fwo/IDD60701/IDD60701.94153.json

Data quality

Most of these data are generated automatically and are frequently updated. Quality checks on data are not normally performed. It is possible for incorrect values to appear. Refer to information at About Latest Weather Observations and please check the disclaimer before using these data.